Time;durP1;ratioP1;P1;durP2;ratioP2;P2;SDS_P1;SDS_P2;PMS_P1;PMS_P2;Temp;Humidity;BMP_temperature;BMP_pressure;BME280_temperature;BME280_humidity;BME280_pressure;Samples;Min_cycle;Max_cycle;Signal;HPM_P1;HPM_P2
2023/09/08 00:01:58;;;;;;;7.93;4.88;;;20.30;62.00;;;;;;5076275;28;20473;-64
2023/09/08 00:04:24;;;;;;;7.22;4.63;;;20.30;62.10;;;;;;5075975;28;20028;-63
2023/09/08 00:06:50;;;;;;;7.03;5.03;;;20.30;61.70;;;;;;5076093;28;20027;-64
2023/09/08 00:09:16;;;;;;;5.80;4.60;;;20.30;62.10;;;;;;5075751;28;20139;-61
2023/09/08 00:11:42;;;;;;;5.72;4.40;;;20.30;61.90;;;;;;5076054;28;20387;-64
2023/09/08 00:14:09;;;;;;;7.15;4.85;;;20.30;61.80;;;;;;5075850;28;20176;-62
2023/09/08 00:16:35;;;;;;;5.53;4.22;;;20.30;61.90;;;;;;5075992;28;20020;-62
2023/09/08 00:19:01;;;;;;;5.55;4.28;;;20.30;61.90;;;;;;5075989;28;20024;-62
2023/09/08 00:21:27;;;;;;;6.05;4.43;;;20.30;61.90;;;;;;5075920;28;20024;-64
2023/09/08 00:23:53;;;;;;;6.90;4.07;;;20.20;62.10;;;;;;5075653;28;20020;-64
2023/09/08 00:26:20;;;;;;;5.68;3.95;;;20.20;62.10;;;;;;5057908;28;20029;-64
2023/09/08 00:28:47;;;;;;;4.53;3.80;;;20.20;62.20;;;;;;5057891;28;20115;-61
2023/09/08 00:31:12;;;;;;;5.30;3.80;;;20.10;62.30;;;;;;5075502;28;20025;-64
2023/09/08 00:33:39;;;;;;;5.95;4.15;;;20.00;62.70;;;;;;5075721;28;20047;-64
2023/09/08 00:36:04;;;;;;;6.07;4.32;;;20.00;62.80;;;;;;5075484;28;20055;-65
2023/09/08 00:38:30;;;;;;;5.13;4.00;;;20.00;63.00;;;;;;5075351;28;20044;-63
2023/09/08 00:40:56;;;;;;;7.03;4.63;;;20.00;63.00;;;;;;5075401;28;20062;-61
2023/09/08 00:43:22;;;;;;;6.07;4.30;;;20.00;63.00;;;;;;5075155;28;20039;-62
2023/09/08 00:45:55;;;;;;;6.38;4.30;;;19.90;63.30;;;;;;5075356;28;20389;-62
2023/09/08 00:48:21;;;;;;;7.65;4.22;;;19.80;63.30;;;;;;5075761;28;20086;-63
2023/09/08 00:50:47;;;;;;;6.72;4.80;;;19.70;63.50;;;;;;5075800;28;20048;-61
2023/09/08 00:53:13;;;;;;;7.72;4.43;;;19.70;63.60;;;;;;5075106;28;20028;-64
2023/09/08 00:55:41;;;;;;;7.03;4.78;;;19.60;63.70;;;;;;5075214;28;20024;-62
2023/09/08 00:58:06;;;;;;;7.13;5.28;;;19.60;64.00;;;;;;5075129;28;20446;-64
2023/09/08 01:00:32;;;;;;;6.90;4.80;;;19.50;64.20;;;;;;5075172;28;20021;-61
2023/09/08 01:02:59;;;;;;;7.75;4.72;;;19.50;64.30;;;;;;5075392;28;20028;-61
2023/09/08 01:05:25;;;;;;;7.88;4.75;;;19.50;64.40;;;;;;5075103;28;20589;-62
2023/09/08 01:07:52;;;;;;;7.45;5.00;;;19.50;64.20;;;;;;5074861;28;20067;-63
2023/09/08 01:10:19;;;;;;;6.20;4.53;;;19.50;64.40;;;;;;5075024;28;20031;-64
2023/09/08 01:12:45;;;;;;;8.13;5.30;;;19.50;64.20;;;;;;5074960;28;20089;-64
2023/09/08 01:15:12;;;;;;;7.07;5.03;;;19.50;64.30;;;;;;5074996;28;20073;-62
2023/09/08 01:17:38;;;;;;;8.43;5.00;;;19.40;64.30;;;;;;5074879;28;20043;-65
2023/09/08 01:20:07;;;;;;;7.32;5.28;;;19.50;64.00;;;;;;5074927;28;20016;-62
2023/09/08 01:23:07;;;;;;;6.63;4.80;;;19.60;64.10;;;;;;5074887;28;20116;-64
2023/09/08 01:25:39;;;;;;;6.30;4.57;;;19.60;64.40;;;;;;5057254;28;20378;-61
2023/09/08 01:28:06;;;;;;;8.48;5.03;;;19.70;63.90;;;;;;5057411;28;20025;-61
2023/09/08 01:30:33;;;;;;;7.80;4.85;;;19.70;63.90;;;;;;5075134;28;20158;-64
2023/09/08 01:33:00;;;;;;;7.00;4.55;;;19.70;63.70;;;;;;5074706;28;20081;-61
2023/09/08 01:35:27;;;;;;;6.82;5.00;;;19.60;63.60;;;;;;5074848;28;20044;-64
2023/09/08 01:37:52;;;;;;;8.68;5.00;;;19.60;63.90;;;;;;5074762;28;20032;-62
2023/09/08 01:40:19;;;;;;;7.70;4.80;;;19.70;63.90;;;;;;5075294;28;20021;-63
2023/09/08 01:42:45;;;;;;;6.70;4.70;;;19.70;63.70;;;;;;5074754;28;20439;-64
2023/09/08 01:45:11;;;;;;;8.10;5.15;;;19.70;63.50;;;;;;5074967;28;20039;-62
2023/09/08 01:47:38;;;;;;;10.40;5.30;;;19.70;63.50;;;;;;5075195;28;20025;-61
2023/09/08 01:50:04;;;;;;;7.95;5.40;;;19.70;63.70;;;;;;5074931;28;20464;-64
2023/09/08 01:52:30;;;;;;;6.93;4.80;;;19.70;63.70;;;;;;5074591;28;20029;-64
2023/09/08 01:54:56;;;;;;;7.32;4.95;;;19.70;63.40;;;;;;5058033;28;20427;-64
2023/09/08 01:57:22;;;;;;;8.95;5.47;;;19.70;63.50;;;;;;5078627;28;20354;-62
2023/09/08 01:59:48;;;;;;;6.07;4.72;;;19.70;63.60;;;;;;5078935;28;20017;-64
2023/09/08 02:02:14;;;;;;;7.05;4.90;;;19.70;63.40;;;;;;5078420;28;20066;-61
2023/09/08 02:04:41;;;;;;;7.32;4.85;;;19.70;63.30;;;;;;5078572;28;20379;-64
2023/09/08 02:07:07;;;;;;;7.95;4.65;;;19.70;63.30;;;;;;5077893;28;20024;-64
2023/09/08 02:09:34;;;;;;;7.45;5.03;;;19.70;63.40;;;;;;5060642;28;20166;-64
2023/09/08 02:12:01;;;;;;;9.80;4.93;;;19.70;63.30;;;;;;5078138;28;20513;-64
2023/09/08 02:14:27;;;;;;;6.57;5.00;;;19.70;63.10;;;;;;5078166;28;20100;-64
2023/09/08 02:16:54;;;;;;;7.00;5.00;;;19.70;63.10;;;;;;5060343;28;20033;-64
2023/09/08 02:19:20;;;;;;;7.53;4.57;;;19.70;63.10;;;;;;5077990;28;20021;-64
2023/09/08 02:21:46;;;;;;;7.30;4.47;;;19.70;63.00;;;;;;5061088;28;20033;-61
2023/09/08 02:24:12;;;;;;;5.88;4.25;;;19.70;63.00;;;;;;5060469;28;20048;-61
2023/09/08 02:26:39;;;;;;;7.68;4.30;;;19.70;62.90;;;;;;5060171;28;20060;-65
2023/09/08 02:29:05;;;;;;;6.20;4.38;;;19.60;62.90;;;;;;5077871;28;20021;-61
2023/09/08 02:31:31;;;;;;;6.47;4.47;;;19.60;62.90;;;;;;5077954;28;20029;-64
2023/09/08 02:33:57;;;;;;;5.60;4.20;;;19.60;62.90;;;;;;5078336;28;20434;-61
2023/09/08 02:36:26;;;;;;;5.90;3.88;;;19.60;62.90;;;;;;5078178;28;20028;-64
2023/09/08 02:38:53;;;;;;;6.60;4.57;;;19.60;63.00;;;;;;5077666;28;20036;-61
2023/09/08 02:41:19;;;;;;;7.82;4.25;;;19.60;63.10;;;;;;5077683;28;20048;-63
2023/09/08 02:43:45;;;;;;;7.47;4.82;;;19.50;63.10;;;;;;5077779;28;20042;-62
2023/09/08 02:46:11;;;;;;;7.13;4.75;;;19.50;63.10;;;;;;5077780;28;20060;-64
2023/09/08 02:48:38;;;;;;;6.72;4.78;;;19.60;63.10;;;;;;5078091;28;20435;-62
2023/09/08 02:51:04;;;;;;;7.70;4.70;;;19.60;63.10;;;;;;5077585;28;20078;-63
2023/09/08 02:53:30;;;;;;;8.52;5.57;;;19.50;63.10;;;;;;5077299;28;20025;-61
2023/09/08 02:55:57;;;;;;;6.80;5.20;;;19.50;63.10;;;;;;5077622;28;20039;-66
2023/09/08 02:58:23;;;;;;;6.93;4.35;;;19.60;63.00;;;;;;5077531;28;20465;-64
2023/09/08 03:00:51;;;;;;;5.97;4.28;;;19.50;63.00;;;;;;5077339;28;20036;-63
2023/09/08 03:03:21;;;;;;;7.38;4.55;;;19.50;63.10;;;;;;5077146;28;20159;-61
2023/09/08 03:05:58;;;;;;;6.93;4.63;;;19.50;63.20;;;;;;5077688;28;20039;-64
2023/09/08 03:08:24;;;;;;;6.47;4.30;;;19.40;63.40;;;;;;5077369;28;20063;-64
2023/09/08 03:10:50;;;;;;;7.35;5.05;;;19.40;63.50;;;;;;5077630;28;20064;-62
2023/09/08 03:13:16;;;;;;;8.48;4.65;;;19.30;63.70;;;;;;5077268;28;20024;-62
2023/09/08 03:15:42;;;;;;;6.32;4.35;;;19.40;63.90;;;;;;5077049;28;20029;-64
2023/09/08 03:18:08;;;;;;;7.63;4.35;;;19.40;63.80;;;;;;5077424;28;20382;-62
2023/09/08 03:20:35;;;;;;;5.30;4.05;;;19.30;63.70;;;;;;5076934;28;20099;-62
2023/09/08 03:23:04;;;;;;;7.07;4.43;;;19.30;63.70;;;;;;5076786;28;20078;-63
2023/09/08 03:25:29;;;;;;;6.28;4.30;;;19.30;63.80;;;;;;5076858;28;20039;-62
2023/09/08 03:27:58;;;;;;;8.18;4.40;;;19.20;63.90;;;;;;5076955;28;20032;-63
2023/09/08 03:30:24;;;;;;;6.57;4.15;;;19.20;63.90;;;;;;5076749;28;20050;-61
2023/09/08 03:32:49;;;;;;;7.22;4.15;;;19.20;64.00;;;;;;5077148;28;20025;-64
2023/09/08 03:35:15;;;;;;;6.32;3.97;;;19.20;64.20;;;;;;5076933;28;20032;-62
2023/09/08 03:37:41;;;;;;;6.50;4.60;;;19.10;64.30;;;;;;5076532;28;20031;-63
2023/09/08 03:40:08;;;;;;;6.82;4.50;;;19.10;64.30;;;;;;5076799;28;20218;-64
2023/09/08 03:42:35;;;;;;;5.75;4.35;;;19.00;64.50;;;;;;5076422;28;20029;-64
2023/09/08 03:45:00;;;;;;;8.38;5.65;;;19.00;64.50;;;;;;5076366;28;20465;-64
2023/09/08 03:47:27;;;;;;;6.85;4.80;;;19.00;65.20;;;;;;5076581;28;20036;-62
2023/09/08 03:49:53;;;;;;;5.82;4.35;;;18.90;65.00;;;;;;5076236;28;20046;-62
2023/09/08 03:52:19;;;;;;;6.40;4.75;;;18.90;65.20;;;;;;5076259;28;20029;-64
2023/09/08 03:54:46;;;;;;;6.13;4.60;;;18.90;65.10;;;;;;5059006;28;20095;-63
2023/09/08 03:57:12;;;;;;;6.50;4.70;;;18.90;65.10;;;;;;5076399;28;20024;-64
2023/09/08 03:59:38;;;;;;;8.18;5.82;;;18.80;65.10;;;;;;5076157;28;20036;-64
2023/09/08 04:02:04;;;;;;;7.50;5.05;;;18.80;65.20;;;;;;5076369;28;20025;-64
2023/09/08 04:04:30;;;;;;;7.35;5.07;;;18.70;65.30;;;;;;5076057;28;20504;-64
2023/09/08 04:06:56;;;;;;;7.43;4.72;;;18.70;65.90;;;;;;5075948;28;20040;-64
2023/09/08 04:09:21;;;;;;;6.30;4.55;;;18.70;65.80;;;;;;5075809;28;20430;-61
2023/09/08 04:11:47;;;;;;;9.90;5.78;;;18.70;65.80;;;;;;5058183;28;20051;-64
2023/09/08 04:14:13;;;;;;;8.27;4.78;;;18.60;66.10;;;;;;5076095;28;20027;-64
2023/09/08 04:16:39;;;;;;;8.43;5.43;;;18.60;66.20;;;;;;5076158;28;20476;-63
2023/09/08 04:19:05;;;;;;;10.32;5.90;;;18.50;66.20;;;;;;5075353;28;20025;-64
2023/09/08 04:21:31;;;;;;;10.10;5.63;;;18.50;66.60;;;;;;5075816;28;20552;-64
2023/09/08 04:23:57;;;;;;;7.80;5.43;;;18.50;66.50;;;;;;5058021;28;20351;-64
2023/09/08 04:26:23;;;;;;;8.23;5.25;;;18.50;66.70;;;;;;5057953;28;20020;-61
2023/09/08 04:28:49;;;;;;;7.43;4.95;;;18.50;66.80;;;;;;5075864;28;20056;-61
2023/09/08 04:31:16;;;;;;;9.00;5.60;;;18.50;66.60;;;;;;5076089;28;20027;-64
2023/09/08 04:33:42;;;;;;;7.18;5.18;;;18.50;66.60;;;;;;5075478;28;20035;-62
2023/09/08 04:36:08;;;;;;;7.75;5.25;;;18.60;66.80;;;;;;5075487;28;20033;-61
2023/09/08 04:38:34;;;;;;;6.75;5.07;;;18.60;66.50;;;;;;5075980;28;20029;-61
2023/09/08 04:41:00;;;;;;;8.18;5.63;;;18.60;66.70;;;;;;5057795;28;20021;-64
2023/09/08 04:43:26;;;;;;;9.23;5.22;;;18.70;66.70;;;;;;5075379;28;20450;-64
2023/09/08 04:45:52;;;;;;;8.38;5.07;;;18.70;66.50;;;;;;5075638;28;20029;-61
2023/09/08 04:48:17;;;;;;;7.20;5.22;;;18.60;66.40;;;;;;5075751;28;20108;-62
2023/09/08 04:50:44;;;;;;;8.10;4.88;;;18.70;66.40;;;;;;5057988;28;20039;-61
2023/09/08 04:53:10;;;;;;;7.38;4.85;;;18.80;66.40;;;;;;5075218;28;20042;-64
2023/09/08 04:55:36;;;;;;;6.38;4.63;;;18.80;66.40;;;;;;5075212;28;20025;-61
2023/09/08 04:58:02;;;;;;;8.63;4.85;;;18.80;66.30;;;;;;5040952;28;20025;-62
2023/09/08 05:00:29;;;;;;;6.05;4.28;;;18.80;66.40;;;;;;5075463;28;20020;-62
2023/09/08 05:02:55;;;;;;;7.03;4.80;;;18.90;66.60;;;;;;5075158;28;20134;-64
2023/09/08 05:05:21;;;;;;;7.10;5.07;;;19.30;66.30;;;;;;5057448;28;20336;-64
2023/09/08 05:07:47;;;;;;;7.78;5.00;;;19.90;65.50;;;;;;5074798;28;20073;-64
2023/09/08 05:10:14;;;;;;;8.85;4.53;;;20.50;64.40;;;;;;5057386;28;20165;-64
2023/09/08 05:12:39;;;;;;;6.00;4.47;;;21.10;63.10;;;;;;5075244;28;20072;-63
2023/09/08 05:15:10;;;;;;;7.28;4.30;;;21.90;61.70;;;;;;5075045;28;20443;-64
2023/09/08 05:17:37;;;;;;;7.28;4.85;;;22.60;60.40;;;;;;5075116;28;20031;-62
2023/09/08 05:20:03;;;;;;;8.77;4.85;;;23.40;58.90;;;;;;5075202;28;20023;-62
2023/09/08 05:22:29;;;;;;;8.95;4.63;;;24.10;57.40;;;;;;5075220;28;20063;-61
2023/09/08 05:24:56;;;;;;;11.05;4.78;;;25.00;56.00;;;;;;5074879;28;20056;-62
2023/09/08 05:27:22;;;;;;;7.15;4.78;;;25.70;54.40;;;;;;5075036;28;20028;-65
2023/09/08 05:29:48;;;;;;;10.50;4.72;;;26.50;53.00;;;;;;5075628;28;20024;-66
2023/09/08 05:32:14;;;;;;;8.35;5.18;;;27.30;51.70;;;;;;5061184;28;20027;-61
2023/09/08 05:34:40;;;;;;;8.18;5.10;;;28.10;50.20;;;;;;5078710;28;20037;-64
2023/09/08 05:37:06;;;;;;;13.50;5.75;;;28.80;48.90;;;;;;5073884;28;21576;-61
2023/09/08 05:39:32;;;;;;;9.00;4.50;;;29.50;47.70;;;;;;5076334;28;20024;-63
2023/09/08 05:41:58;;;;;;;7.75;4.97;;;30.00;46.80;;;;;;5077749;28;20028;-64
2023/09/08 05:44:26;;;;;;;6.82;4.78;;;30.80;45.70;;;;;;5078834;28;20035;-66
2023/09/08 05:46:52;;;;;;;10.13;4.97;;;31.60;44.40;;;;;;5079123;28;20024;-64
2023/09/08 05:49:19;;;;;;;8.57;4.60;;;32.40;43.40;;;;;;5047674;28;20045;-63
2023/09/08 05:51:45;;;;;;;6.55;4.40;;;33.10;42.10;;;;;;5069596;28;20493;-61
2023/09/08 05:54:11;;;;;;;5.75;4.15;;;33.80;41.30;;;;;;5059612;28;20021;-64
2023/09/08 05:56:38;;;;;;;7.38;4.53;;;34.40;40.20;;;;;;5078236;28;20100;-65
2023/09/08 05:59:04;;;;;;;5.78;4.20;;;35.10;39.10;;;;;;5071033;28;20040;-64
2023/09/08 06:01:31;;;;;;;5.55;3.85;;;35.80;38.20;;;;;;5078262;28;20025;-65
2023/09/08 06:03:56;;;;;;;5.68;4.00;;;36.40;37.40;;;;;;5072725;28;20450;-65
2023/09/08 06:06:23;;;;;;;5.88;4.20;;;37.20;36.40;;;;;;5069098;28;20020;-66
2023/09/08 06:08:48;;;;;;;5.70;4.10;;;37.90;35.90;;;;;;5072926;28;20496;-65
2023/09/08 06:11:14;;;;;;;6.00;3.97;;;38.60;35.10;;;;;;5076037;28;20031;-65
2023/09/08 06:13:40;;;;;;;5.75;4.18;;;39.30;34.30;;;;;;5072064;28;20088;-65
2023/09/08 06:16:07;;;;;;;5.35;3.88;;;40.00;33.50;;;;;;5070043;28;20031;-65
2023/09/08 06:18:39;;;;;;;5.88;4.20;;;40.60;32.70;;;;;;5076038;28;20038;-65
2023/09/08 06:21:06;;;;;;;6.53;4.35;;;41.30;32.00;;;;;;5066737;28;20028;-66
2023/09/08 06:23:33;;;;;;;6.20;4.28;;;41.90;31.50;;;;;;5060431;28;20440;-65
2023/09/08 06:26:00;;;;;;;5.07;3.97;;;42.40;30.60;;;;;;5075010;28;20028;-66
2023/09/08 06:28:27;;;;;;;5.45;3.90;;;42.80;30.20;;;;;;5075051;28;20468;-66
2023/09/08 06:30:54;;;;;;;5.43;3.75;;;43.10;29.80;;;;;;5075342;28;20127;-66
2023/09/08 06:33:20;;;;;;;7.20;4.15;;;43.50;29.40;;;;;;5075660;28;20358;-64
2023/09/08 06:35:47;;;;;;;5.80;3.75;;;43.90;29.00;;;;;;5076339;28;20197;-70
2023/09/08 06:38:13;;;;;;;7.28;4.00;;;44.30;28.70;;;;;;5070295;28;20087;-65
2023/09/08 06:40:39;;;;;;;5.28;3.83;;;44.60;28.10;;;;;;5074353;28;20458;-64
2023/09/08 06:43:05;;;;;;;6.07;4.00;;;44.90;27.90;;;;;;5073727;28;20074;-65
2023/09/08 06:45:31;;;;;;;6.97;4.18;;;45.30;27.60;;;;;;5069584;28;20037;-64
2023/09/08 06:47:57;;;;;;;6.43;3.80;;;45.60;27.20;;;;;;5070737;28;20488;-65
2023/09/08 06:50:23;;;;;;;7.82;4.00;;;45.70;26.40;;;;;;5055669;28;20021;-66
2023/09/08 06:52:52;;;;;;;7.00;3.97;;;45.90;26.20;;;;;;5069070;28;20469;-66
2023/09/08 06:55:19;;;;;;;5.78;3.90;;;45.90;25.50;;;;;;5072862;28;20350;-65
2023/09/08 06:57:46;;;;;;;5.85;3.65;;;46.10;25.80;;;;;;5054627;28;21117;-65
2023/09/08 07:00:12;;;;;;;5.40;3.60;;;46.40;25.60;;;;;;5068785;28;20036;-64
2023/09/08 07:02:40;;;;;;;8.25;4.10;;;46.70;25.40;;;;;;5052681;28;20450;-65
2023/09/08 07:05:08;;;;;;;8.25;4.10;;;46.50;24.20;;;;;;5062201;28;20032;-66
2023/09/08 07:07:35;;;;;;;6.23;4.03;;;46.30;24.00;;;;;;5022131;28;1418148;-64
2023/09/08 07:10:02;;;;;;;5.85;4.03;;;46.20;24.30;;;;;;5058841;28;20581;-65
2023/09/08 07:12:28;;;;;;;8.07;4.20;;;46.30;24.30;;;;;;5076623;28;20462;-65
2023/09/08 07:14:54;;;;;;;6.03;4.00;;;46.10;23.90;;;;;;5064493;28;20102;-65
2023/09/08 07:17:20;;;;;;;4.82;3.97;;;45.90;24.10;;;;;;5038517;28;20021;-66
2023/09/08 07:19:45;;;;;;;5.28;3.90;;;45.90;23.60;;;;;;5066752;28;20017;-66
2023/09/08 07:22:11;;;;;;;6.88;4.57;;;45.50;23.70;;;;;;5053065;28;20479;-67
2023/09/08 07:24:37;;;;;;;5.90;4.03;;;45.20;23.50;;;;;;5058366;28;20446;-67
2023/09/08 07:27:03;;;;;;;4.57;4.05;;;44.90;23.80;;;;;;5075987;28;20024;-68
2023/09/08 07:29:29;;;;;;;8.75;4.30;;;44.80;24.00;;;;;;5057999;28;20074;-67
2023/09/08 07:31:56;;;;;;;5.03;3.83;;;44.70;24.00;;;;;;5076148;28;20028;-67
2023/09/08 07:34:22;;;;;;;6.35;4.32;;;44.00;24.50;;;;;;5076601;28;20096;-67
2023/09/08 07:36:47;;;;;;;6.72;4.00;;;42.70;25.20;;;;;;5076387;28;20095;-66
2023/09/08 07:39:13;;;;;;;5.95;4.13;;;41.20;26.40;;;;;;5067048;28;20088;-67
2023/09/08 07:41:40;;;;;;;5.45;4.00;;;39.70;27.80;;;;;;5075625;28;20042;-67
2023/09/08 07:44:06;;;;;;;6.90;4.32;;;38.50;28.90;;;;;;5076055;28;20433;-66
2023/09/08 07:46:32;;;;;;;6.60;4.45;;;37.60;29.80;;;;;;5074653;28;20020;-66
2023/09/08 07:48:59;;;;;;;7.30;4.55;;;36.80;30.20;;;;;;5063061;28;21372;-67
2023/09/08 07:51:26;;;;;;;6.85;4.75;;;36.00;30.60;;;;;;5067410;28;20394;-67
2023/09/08 07:53:53;;;;;;;6.68;4.53;;;35.40;31.10;;;;;;5070072;28;20025;-67
2023/09/08 07:56:19;;;;;;;7.45;5.10;;;34.90;32.10;;;;;;5067480;28;20043;-67
2023/09/08 07:58:45;;;;;;;7.35;4.53;;;34.60;32.30;;;;;;5076085;28;20024;-66
2023/09/08 08:01:13;;;;;;;5.72;4.45;;;34.10;33.40;;;;;;5075156;28;20439;-66
2023/09/08 08:03:39;;;;;;;5.38;4.10;;;33.90;34.30;;;;;;5075671;28;20020;-66
2023/09/08 08:06:05;;;;;;;7.28;4.53;;;33.90;34.50;;;;;;5073209;28;20036;-67
2023/09/08 08:08:32;;;;;;;7.22;4.45;;;33.80;34.00;;;;;;5070313;28;20044;-67
2023/09/08 08:10:58;;;;;;;6.53;4.30;;;33.60;33.70;;;;;;5055239;28;20403;-67
2023/09/08 08:13:24;;;;;;;7.22;4.78;;;33.40;33.30;;;;;;5075162;28;20029;-67
2023/09/08 08:15:50;;;;;;;5.85;4.50;;;33.00;34.00;;;;;;5057880;28;20068;-65
2023/09/08 08:18:16;;;;;;;6.78;4.05;;;32.90;34.30;;;;;;5057606;28;20035;-66
2023/09/08 08:20:42;;;;;;;6.55;4.78;;;32.80;34.80;;;;;;5069029;28;20070;-65
2023/09/08 08:23:08;;;;;;;7.80;4.93;;;32.90;35.30;;;;;;5072261;28;20036;-66
2023/09/08 08:25:34;;;;;;;6.95;4.75;;;32.80;34.80;;;;;;5074482;28;20085;-67
2023/09/08 08:28:00;;;;;;;7.95;4.82;;;32.70;34.90;;;;;;5073443;28;20107;-66
2023/09/08 08:30:27;;;;;;;9.25;5.15;;;32.50;33.60;;;;;;5069450;28;20082;-65
2023/09/08 08:32:53;;;;;;;7.00;4.38;;;32.30;33.80;;;;;;5071447;28;20063;-66
2023/09/08 08:35:20;;;;;;;6.93;4.80;;;32.00;34.10;;;;;;5071462;28;20417;-65
2023/09/08 08:37:46;;;;;;;10.38;4.97;;;32.00;34.40;;;;;;5057156;28;20127;-66
2023/09/08 08:40:12;;;;;;;13.27;4.72;;;31.90;35.00;;;;;;5069236;28;20028;-65
2023/09/08 08:42:39;;;;;;;7.60;4.65;;;31.70;35.10;;;;;;5074025;28;20120;-66
2023/09/08 08:45:05;;;;;;;7.80;5.00;;;31.50;35.50;;;;;;5074539;28;20064;-66
2023/09/08 08:47:32;;;;;;;8.65;5.13;;;31.40;34.80;;;;;;5074012;28;20043;-64
2023/09/08 08:49:59;;;;;;;7.30;4.47;;;31.40;35.00;;;;;;5074903;28;20111;-65
2023/09/08 08:52:29;;;;;;;8.10;5.10;;;31.00;35.40;;;;;;5074721;28;20024;-66
2023/09/08 08:54:55;;;;;;;7.22;5.00;;;30.70;35.50;;;;;;5068547;28;20036;-66
2023/09/08 08:57:22;;;;;;;6.07;4.57;;;30.70;36.10;;;;;;5071694;28;20028;-66
2023/09/08 08:59:51;;;;;;;8.98;4.72;;;30.70;36.30;;;;;;5056782;28;20025;-65
2023/09/08 09:02:19;;;;;;;8.38;4.60;;;30.70;36.30;;;;;;5056409;28;20032;-65
2023/09/08 09:04:46;;;;;;;7.75;4.75;;;30.60;36.00;;;;;;5074647;28;20024;-66
2023/09/08 09:07:12;;;;;;;9.93;5.22;;;30.60;35.80;;;;;;5065551;28;20033;-66
2023/09/08 09:09:40;;;;;;;7.80;4.50;;;30.50;35.20;;;;;;5073038;28;20418;-66
2023/09/08 09:12:06;;;;;;;6.55;4.60;;;30.40;35.20;;;;;;5074008;28;20029;-67
2023/09/08 09:14:33;;;;;;;6.70;4.25;;;30.40;36.30;;;;;;5056732;28;20055;-66
2023/09/08 09:17:00;;;;;;;8.32;4.53;;;30.40;36.20;;;;;;5074280;28;20095;-66
2023/09/08 09:19:31;;;;;;;12.35;4.60;;;30.50;35.20;;;;;;5055604;28;20048;-66
2023/09/08 09:21:59;;;;;;;7.45;4.88;;;30.40;35.50;;;;;;5074129;28;20033;-67
2023/09/08 09:24:38;;;;;;;9.38;4.68;;;30.40;36.20;;;;;;5069089;28;20461;-66
2023/09/08 09:27:06;;;;;;;8.27;4.75;;;30.30;36.60;;;;;;5068795;28;20112;-67
2023/09/08 09:29:34;;;;;;;8.85;5.05;;;30.40;35.90;;;;;;5074355;28;20447;-67
2023/09/08 09:32:05;;;;;;;7.88;4.78;;;30.30;35.70;;;;;;5074220;28;20035;-68
2023/09/08 09:34:32;;;;;;;8.15;5.10;;;30.30;36.10;;;;;;5074624;28;20028;-68
2023/09/08 09:36:58;;;;;;;11.93;4.72;;;30.40;36.00;;;;;;5074432;28;20141;-68
2023/09/08 09:39:25;;;;;;;8.38;5.25;;;30.40;36.20;;;;;;5074054;28;20028;-67
2023/09/08 09:41:56;;;;;;;7.47;4.28;;;30.40;36.50;;;;;;5074601;28;20107;-67
2023/09/08 09:44:22;;;;;;;8.90;4.75;;;30.40;36.00;;;;;;5057147;28;20036;-66
2023/09/08 09:46:52;;;;;;;7.82;5.13;;;30.40;36.50;;;;;;5074627;28;20373;-67
2023/09/08 09:49:26;;;;;;;9.73;4.90;;;30.20;36.40;;;;;;5074079;28;20024;-66
2023/09/08 09:51:54;;;;;;;15.65;14.05;;;30.20;37.40;;;;;;5073791;28;20051;-67
2023/09/08 09:54:20;;;;;;;17.73;14.18;;;30.20;36.70;;;;;;5074231;28;20033;-67
2023/09/08 09:56:48;;;;;;;9.45;5.72;;;30.30;36.90;;;;;;5050632;28;20347;-66
2023/09/08 09:59:14;;;;;;;7.65;4.70;;;30.20;37.80;;;;;;5065819;28;20025;-67
2023/09/08 10:01:42;;;;;;;7.80;5.22;;;30.40;36.30;;;;;;5069043;28;20019;-67
2023/09/08 10:04:08;;;;;;;9.20;5.00;;;30.30;36.50;;;;;;5069276;28;20119;-67
2023/09/08 10:06:36;;;;;;;8.90;4.50;;;30.10;37.10;;;;;;5072484;28;20031;-66
2023/09/08 10:09:04;;;;;;;8.63;4.70;;;30.00;37.00;;;;;;5074068;28;20045;-67
2023/09/08 10:11:41;;;;;;;7.40;4.72;;;30.00;37.10;;;;;;5071931;28;20052;-67
2023/09/08 10:14:11;;;;;;;7.88;4.93;;;30.00;37.20;;;;;;5054070;28;20031;-67
2023/09/08 10:16:39;;;;;;;8.02;4.88;;;30.00;37.70;;;;;;5049518;28;20024;-66
2023/09/08 10:19:08;;;;;;;10.52;4.95;;;30.10;37.10;;;;;;5068813;28;20051;-67
2023/09/08 10:21:40;;;;;;;8.32;5.05;;;30.00;38.00;;;;;;5071264;28;20081;-67
2023/09/08 10:24:44;;;;;;;7.43;4.65;;;29.90;37.60;;;;;;5072933;28;20095;-67
2023/09/08 10:27:12;;;;;;;9.45;5.10;;;30.00;37.60;;;;;;4989838;28;20027;-66
2023/09/08 10:29:39;;;;;;;8.18;4.78;;;29.90;37.40;;;;;;4992704;28;20042;-67
2023/09/08 10:32:07;;;;;;;8.48;5.60;;;29.90;37.60;;;;;;4971280;28;20027;-67
2023/09/08 10:34:36;;;;;;;9.73;4.95;;;29.90;37.90;;;;;;4960687;28;20065;-67
2023/09/08 10:37:03;;;;;;;7.20;5.10;;;30.00;38.80;;;;;;4974967;28;20074;-67
2023/09/08 10:39:37;;;;;;;6.75;5.18;;;30.10;37.70;;;;;;4974926;28;20076;-66
2023/09/08 10:42:21;;;;;;;7.82;4.78;;;30.10;37.20;;;;;;4974789;28;20046;-64
2023/09/08 10:44:52;;;;;;;10.52;5.07;;;30.10;37.40;;;;;;4975726;28;20073;-66
2023/09/08 10:47:47;;;;;;;5.75;4.63;;;30.00;37.80;;;;;;4976936;28;20047;-64
2023/09/08 10:50:25;;;;;;;8.68;5.00;;;30.10;39.60;;;;;;4962818;28;20039;-66
2023/09/08 10:53:14;;;;;;;9.93;5.20;;;30.10;38.10;;;;;;4977370;28;20453;-64
2023/09/08 10:55:47;;;;;;;10.10;5.18;;;30.20;37.90;;;;;;4976976;28;20050;-65
2023/09/08 10:58:35;;;;;;;6.05;4.75;;;30.20;37.50;;;;;;4960771;28;20358;-63
2023/09/08 11:01:04;;;;;;;7.43;5.15;;;30.30;37.20;;;;;;5015336;28;20028;-63
2023/09/08 11:03:41;;;;;;;7.28;4.90;;;30.10;36.70;;;;;;5040259;28;20033;-65
2023/09/08 11:06:11;;;;;;;6.50;4.72;;;30.20;37.00;;;;;;5057285;28;20099;-66
2023/09/08 11:08:44;;;;;;;12.32;5.20;;;30.20;37.20;;;;;;5057066;28;20081;-66
2023/09/08 11:11:12;;;;;;;9.00;4.95;;;30.20;36.40;;;;;;5040086;28;20351;-61
2023/09/08 11:13:45;;;;;;;9.32;5.10;;;30.30;37.10;;;;;;5057356;28;20358;-63
2023/09/08 11:16:13;;;;;;;9.80;4.78;;;30.30;37.20;;;;;;5040904;28;20043;-61
2023/09/08 11:18:40;;;;;;;8.73;4.88;;;30.40;36.90;;;;;;5057050;28;20029;-65
2023/09/08 11:21:09;;;;;;;7.43;4.82;;;30.40;36.30;;;;;;5039510;28;20079;-65
2023/09/08 11:23:35;;;;;;;6.80;4.78;;;30.40;37.00;;;;;;5039512;28;20025;-61
2023/09/08 11:26:02;;;;;;;6.43;4.75;;;30.30;36.60;;;;;;5039399;28;20074;-62
2023/09/08 11:28:28;;;;;;;8.80;4.60;;;30.30;36.50;;;;;;5056198;28;20032;-66
2023/09/08 11:30:55;;;;;;;8.30;4.93;;;30.40;36.20;;;;;;5056768;28;20021;-63
2023/09/08 11:33:25;;;;;;;6.10;4.30;;;30.30;36.20;;;;;;5056695;28;20033;-62
2023/09/08 11:35:54;;;;;;;7.63;4.75;;;30.40;36.00;;;;;;5057616;28;20039;-65
2023/09/08 11:38:28;;;;;;;6.82;4.45;;;30.40;36.00;;;;;;5056616;28;20435;-66
2023/09/08 11:40:57;;;;;;;6.13;4.22;;;30.50;35.70;;;;;;5056590;28;20017;-64
2023/09/08 11:43:23;;;;;;;10.57;4.80;;;30.60;36.10;;;;;;5056515;28;20489;-63
2023/09/08 11:45:49;;;;;;;8.75;4.78;;;30.50;35.50;;;;;;5056551;28;20047;-61
2023/09/08 11:48:16;;;;;;;7.00;4.60;;;30.50;36.00;;;;;;5038821;28;20036;-62
2023/09/08 11:50:42;;;;;;;8.60;4.85;;;30.50;35.60;;;;;;5038797;28;20465;-63
2023/09/08 11:53:08;;;;;;;8.25;4.78;;;30.50;36.00;;;;;;5038825;28;20029;-62
2023/09/08 11:55:39;;;;;;;8.65;5.00;;;30.50;36.10;;;;;;5056242;28;20170;-65
2023/09/08 11:58:06;;;;;;;10.18;5.00;;;30.50;36.40;;;;;;5056239;28;20374;-65
2023/09/08 12:00:42;;;;;;;8.63;5.30;;;30.60;35.60;;;;;;5056495;28;20025;-62
2023/09/08 12:03:12;;;;;;;9.07;4.70;;;30.60;36.20;;;;;;5056186;28;20025;-63
2023/09/08 12:05:39;;;;;;;9.73;4.88;;;30.60;36.20;;;;;;5039042;28;20071;-62
2023/09/08 12:08:06;;;;;;;10.00;5.10;;;30.60;35.80;;;;;;5055855;28;20128;-61
2023/09/08 12:10:39;;;;;;;8.98;4.63;;;30.60;35.60;;;;;;5056278;28;20025;-63
2023/09/08 12:13:08;;;;;;;8.55;4.43;;;30.60;35.60;;;;;;5055906;28;20029;-63
2023/09/08 12:15:36;;;;;;;7.45;4.78;;;30.60;35.70;;;;;;5038349;28;20064;-66
2023/09/08 12:18:06;;;;;;;8.88;5.05;;;30.70;35.20;;;;;;5055867;28;20021;-62
2023/09/08 12:20:33;;;;;;;8.15;4.30;;;30.60;35.30;;;;;;5038707;28;20045;-61
2023/09/08 12:23:07;;;;;;;10.07;4.43;;;30.70;35.40;;;;;;5055714;28;20033;-65
2023/09/08 12:25:34;;;;;;;6.20;4.70;;;30.70;35.70;;;;;;5055752;28;20029;-62
2023/09/08 12:28:01;;;;;;;5.93;4.72;;;30.80;35.60;;;;;;5055962;28;20039;-63
2023/09/08 12:30:34;;;;;;;7.47;5.07;;;30.80;36.00;;;;;;5055618;28;20021;-64
2023/09/08 12:33:02;;;;;;;7.13;4.97;;;30.80;35.60;;;;;;5039592;28;20112;-64
2023/09/08 12:35:30;;;;;;;9.32;4.82;;;30.80;35.30;;;;;;5055569;28;20033;-63
2023/09/08 12:38:01;;;;;;;7.43;5.00;;;30.80;35.50;;;;;;5055977;28;20431;-64
2023/09/08 12:40:33;;;;;;;7.45;4.68;;;30.80;34.50;;;;;;5055533;28;20021;-64
2023/09/08 12:42:59;;;;;;;7.03;4.70;;;30.70;35.50;;;;;;5055739;28;20048;-64
2023/09/08 12:45:27;;;;;;;7.15;4.63;;;30.70;35.90;;;;;;5055444;28;20060;-66
2023/09/08 12:47:57;;;;;;;6.18;4.15;;;30.80;35.90;;;;;;5055407;28;20435;-66